Time;durP1;ratioP1;P1;durP2;ratioP2;P2;SDS_P1;SDS_P2;PMS_P1;PMS_P2;Temp;Humidity;BMP_temperature;BMP_pressure;BME280_temperature;BME280_humidity;BME280_pressure;Samples;Min_cycle;Max_cycle;Signal;HPM_P1;HPM_P2
2022/04/16 00:01:55;;;;;;;3.28;2.97;;;;;;;;;;5029966;28;20128;-67
2022/04/16 00:04:22;;;;;;;3.88;3.30;;;;;;;;;;5015076;28;20042;-67
2022/04/16 00:06:48;;;;;;;3.80;3.05;;;;;;;;;;5013293;28;20054;-67
2022/04/16 00:09:14;;;;;;;4.00;3.08;;;;;;;;;;5015313;28;20042;-67
2022/04/16 00:11:40;;;;;;;3.28;2.95;;;;;;;;;;5014236;28;20039;-67
2022/04/16 00:14:06;;;;;;;4.72;3.30;;;;;;;;;;5014608;28;20046;-67
2022/04/16 00:16:33;;;;;;;3.88;3.13;;;;;;;;;;5014922;28;20041;-67
2022/04/16 00:18:59;;;;;;;3.95;3.38;;;;;;;;;;5014828;28;20459;-67
2022/04/16 00:21:25;;;;;;;4.32;3.10;;;;;;;;;;5014994;28;20037;-67
2022/04/16 00:23:52;;;;;;;4.45;3.30;;;;;;;;;;5014904;28;20069;-67
2022/04/16 00:26:21;;;;;;;3.70;3.08;;;;;;;;;;5014766;28;20413;-67
2022/04/16 00:28:49;;;;;;;4.28;3.28;;;;;;;;;;5014819;28;20120;-67
2022/04/16 00:31:15;;;;;;;3.55;3.08;;;;;;;;;;5014426;28;20045;-67
2022/04/16 00:33:41;;;;;;;3.60;3.00;;;;;;;;;;5014493;28;20493;-67
2022/04/16 00:36:07;;;;;;;3.97;3.00;;;;;;;;;;5014812;28;20049;-67
2022/04/16 00:38:33;;;;;;;4.13;3.13;;;;;;;;;;5014654;28;20081;-67
2022/04/16 00:41:02;;;;;;;3.70;3.00;;;;;;;;;;5014451;28;20559;-67
2022/04/16 00:43:29;;;;;;;4.15;3.13;;;;;;;;;;5014076;28;20475;-67
2022/04/16 00:45:55;;;;;;;4.00;3.13;;;;;;;;;;5014080;28;20048;-67
2022/04/16 00:48:22;;;;;;;4.35;3.17;;;;;;;;;;5013327;28;20401;-67
2022/04/16 00:50:51;;;;;;;3.45;3.00;;;;;;;;;;5014293;28;20042;-67
2022/04/16 00:53:17;;;;;;;3.88;3.22;;;;;;;;;;5014355;28;20046;-67
2022/04/16 00:55:44;;;;;;;3.58;2.78;;;;;;;;;;5014408;28;20052;-67
2022/04/16 00:58:10;;;;;;;4.18;3.17;;;;;;;;;;5013815;28;20054;-67
2022/04/16 01:00:36;;;;;;;4.13;3.30;;;;;;;;;;5014554;28;20084;-66
2022/04/16 01:03:02;;;;;;;3.85;3.15;;;;;;;;;;5014319;28;20084;-67
2022/04/16 01:05:28;;;;;;;3.67;3.10;;;;;;;;;;5013955;28;20064;-67
2022/04/16 01:07:57;;;;;;;3.97;2.97;;;;;;;;;;5014375;28;20473;-67
2022/04/16 01:10:27;;;;;;;3.45;2.97;;;;;;;;;;5014007;28;20049;-68
2022/04/16 01:12:54;;;;;;;3.70;3.10;;;;;;;;;;5014044;28;20124;-67
2022/04/16 01:15:20;;;;;;;4.65;3.10;;;;;;;;;;5014107;28;20117;-67
2022/04/16 01:17:49;;;;;;;3.90;3.40;;;;;;;;;;5013730;28;20053;-67
2022/04/16 01:20:16;;;;;;;3.50;2.97;;;;;;;;;;5014241;28;20041;-67
2022/04/16 01:22:42;;;;;;;4.28;3.25;;;;;;;;;;5013763;28;20046;-67
2022/04/16 01:25:09;;;;;;;4.30;3.10;;;;;;;;;;5014003;28;20493;-67
2022/04/16 01:27:43;;;;;;;3.45;3.13;;;;;;;;;;5013552;28;20069;-67
2022/04/16 01:30:09;;;;;;;3.75;2.90;;;;;;;;;;5013962;28;20085;-67
2022/04/16 01:32:36;;;;;;;3.80;3.03;;;;;;;;;;5013883;28;20081;-67
2022/04/16 01:35:04;;;;;;;4.10;3.15;;;;;;;;;;5013431;28;20160;-67
2022/04/16 01:37:34;;;;;;;3.50;2.95;;;;;;;;;;5013328;28;20034;-67
2022/04/16 01:40:00;;;;;;;3.72;3.08;;;;;;;;;;5013407;28;20045;-67
2022/04/16 01:42:29;;;;;;;3.80;3.20;;;;;;;;;;5012886;28;20049;-67
2022/04/16 01:44:55;;;;;;;3.90;3.20;;;;;;;;;;5012808;28;20049;-68
2022/04/16 01:47:21;;;;;;;3.25;2.95;;;;;;;;;;5013574;28;20042;-67
2022/04/16 01:49:47;;;;;;;4.18;3.10;;;;;;;;;;5012459;28;20049;-67
2022/04/16 01:52:14;;;;;;;4.15;3.20;;;;;;;;;;5013176;28;20058;-67
2022/04/16 01:54:43;;;;;;;4.40;3.20;;;;;;;;;;5013022;28;20042;-67
2022/04/16 01:57:09;;;;;;;3.72;3.33;;;;;;;;;;5013176;28;20046;-67
2022/04/16 01:59:35;;;;;;;4.22;3.33;;;;;;;;;;5013229;28;20053;-67
2022/04/16 02:02:01;;;;;;;3.30;2.95;;;;;;;;;;5013220;28;20408;-67
2022/04/16 02:04:28;;;;;;;3.72;3.13;;;;;;;;;;4993605;28;20043;-67
2022/04/16 02:06:54;;;;;;;3.88;3.28;;;;;;;;;;4993573;28;20129;-67
2022/04/16 02:09:20;;;;;;;3.38;2.85;;;;;;;;;;5008276;28;20125;-67
2022/04/16 02:11:46;;;;;;;4.20;3.20;;;;;;;;;;5013073;28;20038;-67
2022/04/16 02:14:12;;;;;;;3.80;3.13;;;;;;;;;;5013016;28;20081;-67
2022/04/16 02:16:38;;;;;;;3.60;2.92;;;;;;;;;;5013230;28;20458;-67
2022/04/16 02:19:04;;;;;;;4.18;3.20;;;;;;;;;;5012655;28;20045;-67
2022/04/16 02:21:32;;;;;;;3.95;3.00;;;;;;;;;;5013128;28;20512;-67
2022/04/16 02:23:58;;;;;;;3.75;3.35;;;;;;;;;;5012710;28;20053;-67
2022/04/16 02:26:26;;;;;;;3.10;2.80;;;;;;;;;;5012933;28;20409;-67
2022/04/16 02:28:52;;;;;;;4.03;3.20;;;;;;;;;;5012933;28;20452;-67
2022/04/16 02:31:18;;;;;;;3.33;3.03;;;;;;;;;;5011776;28;20068;-67
2022/04/16 02:33:44;;;;;;;3.90;3.42;;;;;;;;;;5013035;28;20409;-67
2022/04/16 02:36:12;;;;;;;3.35;3.05;;;;;;;;;;5012567;28;20042;-67
2022/04/16 02:38:41;;;;;;;4.20;2.90;;;;;;;;;;5012915;28;20046;-67
2022/04/16 02:41:07;;;;;;;3.85;3.15;;;;;;;;;;5012304;28;20041;-67
2022/04/16 02:43:33;;;;;;;3.70;3.17;;;;;;;;;;5012804;28;20045;-67
2022/04/16 02:48:44;;;;;;;3.80;3.00;;;;;;;;;;5012883;28;20096;-67
2022/04/16 02:51:12;;;;;;;3.22;2.90;;;;;;;;;;5013064;28;20073;-67
2022/04/16 02:53:38;;;;;;;4.50;3.20;;;;;;;;;;5012491;28;20129;-67
2022/04/16 02:56:04;;;;;;;3.65;3.00;;;;;;;;;;5012783;28;20517;-67
2022/04/16 02:58:30;;;;;;;3.45;2.90;;;;;;;;;;5012060;28;20455;-68
2022/04/16 03:00:56;;;;;;;3.45;3.08;;;;;;;;;;5008524;28;20382;-67
2022/04/16 03:03:22;;;;;;;3.13;2.80;;;;;;;;;;5012581;28;20053;-67
2022/04/16 03:05:48;;;;;;;3.22;2.92;;;;;;;;;;5012845;28;20042;-67
2022/04/16 03:08:15;;;;;;;3.42;2.92;;;;;;;;;;5012626;28;20038;-67
2022/04/16 03:10:41;;;;;;;3.67;3.00;;;;;;;;;;5012201;28;20046;-67
2022/04/16 03:13:07;;;;;;;3.97;3.50;;;;;;;;;;5015165;28;20100;-67
2022/04/16 03:18:19;;;;;;;3.50;3.00;;;;;;;;;;5016226;28;20050;-67
2022/04/16 03:20:45;;;;;;;3.20;2.90;;;;;;;;;;5015919;28;20068;-67
2022/04/16 03:23:11;;;;;;;4.13;3.17;;;;;;;;;;5016281;28;20482;-67
2022/04/16 03:25:44;;;;;;;3.40;3.10;;;;;;;;;;5016023;28;20045;-67
2022/04/16 03:28:10;;;;;;;3.40;3.10;;;;;;;;;;5016023;28;20046;-67
2022/04/16 03:30:36;;;;;;;3.35;3.05;;;;;;;;;;5015869;28;20486;-67
2022/04/16 03:33:02;;;;;;;3.75;2.83;;;;;;;;;;5015729;28;20046;-67
2022/04/16 03:35:28;;;;;;;4.40;3.13;;;;;;;;;;5016066;28;20374;-67
2022/04/16 03:37:55;;;;;;;3.30;3.00;;;;;;;;;;5015452;28;20129;-67
2022/04/16 03:40:24;;;;;;;3.35;2.88;;;;;;;;;;5015595;28;20057;-67
2022/04/16 03:42:54;;;;;;;3.40;2.85;;;;;;;;;;5015268;28;20064;-67
2022/04/16 03:45:21;;;;;;;3.75;2.88;;;;;;;;;;5015878;28;20042;-67
2022/04/16 03:47:48;;;;;;;3.47;2.92;;;;;;;;;;5015397;28;20398;-67
2022/04/16 03:50:14;;;;;;;3.80;3.08;;;;;;;;;;5015698;28;20074;-67
2022/04/16 03:52:43;;;;;;;3.35;2.80;;;;;;;;;;5015561;28;20045;-67
2022/04/16 04:00:46;;;;;;;3.83;3.15;;;;;;;;;;5015438;28;20093;-67
2022/04/16 04:03:12;;;;;;;3.20;2.88;;;;;;;;;;5015210;28;20038;-67
2022/04/16 04:05:39;;;;;;;3.65;3.05;;;;;;;;;;5015240;28;20127;-67
2022/04/16 04:08:05;;;;;;;3.60;2.92;;;;;;;;;;5014992;28;20046;-67
2022/04/16 04:10:32;;;;;;;3.00;2.67;;;;;;;;;;5013579;28;20456;-67
2022/04/16 04:12:57;;;;;;;3.40;3.05;;;;;;;;;;5015391;28;20128;-67
2022/04/16 04:15:24;;;;;;;3.65;3.35;;;;;;;;;;5015035;28;20120;-67
2022/04/16 04:17:50;;;;;;;3.75;3.35;;;;;;;;;;5015440;28;20077;-67
2022/04/16 04:20:16;;;;;;;3.35;3.05;;;;;;;;;;5014932;28;20046;-67
2022/04/16 04:22:42;;;;;;;3.80;3.20;;;;;;;;;;5014233;28;20042;-67
2022/04/16 04:25:09;;;;;;;3.90;3.13;;;;;;;;;;5015078;28;20073;-67
2022/04/16 04:27:35;;;;;;;3.40;3.10;;;;;;;;;;5015002;28;20048;-67
2022/04/16 04:30:01;;;;;;;4.53;2.90;;;;;;;;;;5015304;28;20042;-67
2022/04/16 04:32:30;;;;;;;4.00;3.40;;;;;;;;;;5014358;28;20194;-67
2022/04/16 04:34:56;;;;;;;3.65;3.22;;;;;;;;;;5014391;28;20108;-67
2022/04/16 04:37:22;;;;;;;3.00;2.70;;;;;;;;;;5014422;28;20444;-67
2022/04/16 04:39:49;;;;;;;3.10;2.78;;;;;;;;;;5014664;28;20046;-67
2022/04/16 04:42:29;;;;;;;3.50;3.00;;;;;;;;;;5014404;28;20041;-67
2022/04/16 04:44:55;;;;;;;3.20;2.90;;;;;;;;;;5014396;28;20129;-67
2022/04/16 04:47:21;;;;;;;3.25;2.88;;;;;;;;;;5014696;28;20050;-67
2022/04/16 04:49:47;;;;;;;3.38;2.72;;;;;;;;;;5014607;28;20046;-67
2022/04/16 04:52:30;;;;;;;3.33;2.60;;;;;;;;;;5014584;28;20046;-67
2022/04/16 04:54:57;;;;;;;3.13;2.83;;;;;;;;;;5014066;28;20085;-67
2022/04/16 04:57:23;;;;;;;2.63;2.42;;;;;;;;;;5014386;28;20124;-67
2022/04/16 04:59:49;;;;;;;3.25;2.60;;;;;;;;;;5014771;28;20053;-67
2022/04/16 05:02:15;;;;;;;2.65;2.40;;;;;;;;;;5013647;28;20057;-67
2022/04/16 05:04:41;;;;;;;3.22;2.70;;;;;;;;;;5014279;28;20057;-67
2022/04/16 05:07:07;;;;;;;2.97;2.40;;;;;;;;;;5013964;28;20046;-67
2022/04/16 05:09:33;;;;;;;3.10;2.20;;;;;;;;;;5012672;28;20381;-67
2022/04/16 05:11:59;;;;;;;2.58;2.35;;;;;;;;;;5014048;28;20053;-67
2022/04/16 05:14:25;;;;;;;2.72;2.30;;;;;;;;;;5013591;28;20539;-67
2022/04/16 05:16:51;;;;;;;2.42;2.22;;;;;;;;;;5013865;28;20124;-67
2022/04/16 05:19:17;;;;;;;3.13;2.60;;;;;;;;;;5014217;28;20081;-67
2022/04/16 05:21:44;;;;;;;2.58;2.30;;;;;;;;;;5013855;28;20080;-67
2022/04/16 05:24:10;;;;;;;2.80;2.50;;;;;;;;;;5013467;28;20045;-67
2022/04/16 05:26:39;;;;;;;4.55;2.55;;;;;;;;;;5013753;28;20097;-67
2022/04/16 05:29:06;;;;;;;2.80;2.22;;;;;;;;;;5013407;28;20054;-67
2022/04/16 05:31:32;;;;;;;2.83;2.53;;;;;;;;;;5013861;28;20038;-67
2022/04/16 05:36:43;;;;;;;2.97;2.50;;;;;;;;;;5013493;28;20050;-67
2022/04/16 05:39:09;;;;;;;2.85;2.55;;;;;;;;;;5013601;28;20121;-67
2022/04/16 05:41:37;;;;;;;3.13;2.70;;;;;;;;;;5013448;28;20046;-67
2022/04/16 05:44:04;;;;;;;2.90;2.60;;;;;;;;;;5013515;28;20042;-67
2022/04/16 05:46:30;;;;;;;3.35;2.50;;;;;;;;;;5013639;28;20060;-67
2022/04/16 05:48:56;;;;;;;2.80;2.50;;;;;;;;;;5013046;28;20409;-67
2022/04/16 05:51:22;;;;;;;3.17;2.53;;;;;;;;;;5012868;28;20584;-67
2022/04/16 05:53:49;;;;;;;3.47;2.72;;;;;;;;;;5009826;28;20485;-67
2022/04/16 05:56:15;;;;;;;2.75;2.45;;;;;;;;;;5013267;28;20045;-68
2022/04/16 05:58:44;;;;;;;3.00;2.70;;;;;;;;;;5013449;28;20058;-67
2022/04/16 06:01:10;;;;;;;3.90;3.50;;;;;;;;;;5012250;28;20407;-67
2022/04/16 06:03:37;;;;;;;4.93;3.88;;;;;;;;;;5020630;28;20479;-67
2022/04/16 06:06:06;;;;;;;4.75;3.30;;;;;;;;;;5010265;28;20084;-67
2022/04/16 06:08:32;;;;;;;5.63;4.00;;;;;;;;;;5013139;28;20073;-67
2022/04/16 06:10:58;;;;;;;4.35;3.50;;;;;;;;;;5013176;28;20076;-67
2022/04/16 06:13:25;;;;;;;5.75;3.92;;;;;;;;;;5013254;28;20050;-67
2022/04/16 06:15:51;;;;;;;4.10;3.53;;;;;;;;;;5012937;28;20406;-68
2022/04/16 06:18:18;;;;;;;6.57;3.40;;;;;;;;;;5012001;28;20076;-67
2022/04/16 06:20:44;;;;;;;5.10;3.25;;;;;;;;;;5028252;28;20054;-68
2022/04/16 06:23:10;;;;;;;4.78;3.15;;;;;;;;;;5013096;28;20053;-67
2022/04/16 06:25:36;;;;;;;3.72;3.40;;;;;;;;;;5012504;28;20038;-68
2022/04/16 06:28:02;;;;;;;4.53;3.30;;;;;;;;;;5012907;28;20378;-68
2022/04/16 06:30:28;;;;;;;4.32;3.30;;;;;;;;;;5012924;28;20134;-67
2022/04/16 06:32:54;;;;;;;3.90;3.20;;;;;;;;;;5013034;28;20049;-68
2022/04/16 06:35:20;;;;;;;6.63;3.42;;;;;;;;;;5012897;28;20046;-67
2022/04/16 06:37:46;;;;;;;4.10;3.53;;;;;;;;;;5012948;28;20551;-67
2022/04/16 06:40:12;;;;;;;5.25;3.55;;;;;;;;;;5012394;28;20165;-67
2022/04/16 06:42:39;;;;;;;4.75;3.40;;;;;;;;;;5013023;28;20053;-67
2022/04/16 06:45:06;;;;;;;3.97;3.50;;;;;;;;;;5012816;28;20504;-67
2022/04/16 06:47:32;;;;;;;4.47;3.55;;;;;;;;;;5014614;28;20064;-68
2022/04/16 06:49:58;;;;;;;4.03;3.58;;;;;;;;;;5021303;28;20053;-67
2022/04/16 06:52:24;;;;;;;4.82;3.40;;;;;;;;;;5013332;28;20101;-68
2022/04/16 06:54:51;;;;;;;4.13;3.58;;;;;;;;;;5015819;28;20104;-68
2022/04/16 06:57:17;;;;;;;4.03;3.53;;;;;;;;;;5015190;28;20104;-69
2022/04/16 06:59:43;;;;;;;4.60;3.70;;;;;;;;;;5007564;28;20045;-69
2022/04/16 07:02:09;;;;;;;4.00;3.60;;;;;;;;;;5014620;28;20061;-69
2022/04/16 07:04:36;;;;;;;5.90;4.60;;;;;;;;;;5016340;28;20076;-69
2022/04/16 07:07:02;;;;;;;5.78;4.80;;;;;;;;;;5016022;28;20116;-69
2022/04/16 07:09:28;;;;;;;6.82;4.63;;;;;;;;;;5016213;28;20478;-69
2022/04/16 07:11:54;;;;;;;10.63;6.53;;;;;;;;;;5016437;28;20497;-69
2022/04/16 07:14:21;;;;;;;11.73;6.50;;;;;;;;;;5015644;28;20046;-69
2022/04/16 07:16:47;;;;;;;8.48;5.90;;;;;;;;;;5015838;28;20501;-69
2022/04/16 07:19:13;;;;;;;11.27;6.40;;;;;;;;;;5016352;28;20042;-69
2022/04/16 07:21:39;;;;;;;11.00;5.60;;;;;;;;;;5015816;28;20053;-69
2022/04/16 07:24:06;;;;;;;8.65;5.55;;;;;;;;;;5016063;28;20493;-69
2022/04/16 07:26:32;;;;;;;10.88;5.65;;;;;;;;;;5016108;28;20050;-69
2022/04/16 07:28:58;;;;;;;8.48;5.28;;;;;;;;;;5016020;28;20045;-69
2022/04/16 07:31:25;;;;;;;7.38;5.10;;;;;;;;;;5015999;28;20052;-69
2022/04/16 07:33:51;;;;;;;7.57;5.22;;;;;;;;;;5015833;28;20046;-69
2022/04/16 07:36:17;;;;;;;8.57;4.72;;;;;;;;;;5015684;28;20041;-69
2022/04/16 07:38:43;;;;;;;7.40;4.75;;;;;;;;;;5015806;28;20041;-69
2022/04/16 07:41:12;;;;;;;5.63;4.30;;;;;;;;;;5015896;28;20512;-69
2022/04/16 07:43:38;;;;;;;6.85;4.35;;;;;;;;;;5015748;28;20049;-69
2022/04/16 07:46:04;;;;;;;5.80;4.53;;;;;;;;;;5015109;28;20050;-69
2022/04/16 07:48:30;;;;;;;7.03;4.43;;;;;;;;;;5015476;28;20046;-69
2022/04/16 07:50:56;;;;;;;6.95;4.15;;;;;;;;;;5015410;28;20046;-69
2022/04/16 07:53:22;;;;;;;6.00;4.20;;;;;;;;;;5015724;28;20050;-69
2022/04/16 07:55:48;;;;;;;6.47;4.65;;;;;;;;;;5015612;28;20041;-69
2022/04/16 07:58:14;;;;;;;5.30;4.50;;;;;;;;;;5029875;28;20417;-69
2022/04/16 08:00:40;;;;;;;7.57;4.63;;;;;;;;;;5015060;28;20462;-68
2022/04/16 08:03:06;;;;;;;6.45;4.72;;;;;;;;;;5014949;28;20042;-69
2022/04/16 08:05:32;;;;;;;6.60;4.47;;;;;;;;;;5012279;28;20054;-69
2022/04/16 08:07:58;;;;;;;6.57;4.88;;;;;;;;;;5014335;28;20061;-69
2022/04/16 08:10:24;;;;;;;8.60;5.28;;;;;;;;;;5014721;28;20048;-67
2022/04/16 08:12:50;;;;;;;7.70;4.70;;;;;;;;;;5013948;28;20042;-67
2022/04/16 08:15:16;;;;;;;8.23;4.85;;;;;;;;;;5015010;28;20044;-68
2022/04/16 08:17:43;;;;;;;6.38;4.40;;;;;;;;;;5014434;28;20041;-68
2022/04/16 08:20:09;;;;;;;5.38;4.35;;;;;;;;;;5014727;28;20052;-68
2022/04/16 08:22:35;;;;;;;8.07;4.68;;;;;;;;;;5014789;28;20516;-68
2022/04/16 08:27:46;;;;;;;5.07;3.92;;;;;;;;;;5014605;28;20050;-67
2022/04/16 08:30:13;;;;;;;6.10;4.40;;;;;;;;;;5013309;28;20080;-67
2022/04/16 08:32:43;;;;;;;4.93;4.03;;;;;;;;;;5014338;28;20050;-66
2022/04/16 08:35:10;;;;;;;6.10;4.30;;;;;;;;;;5014478;28;20050;-67
2022/04/16 08:37:36;;;;;;;5.20;4.45;;;;;;;;;;5013796;28;20034;-67
2022/04/16 08:40:03;;;;;;;6.88;4.50;;;;;;;;;;5029459;28;20053;-68
2022/04/16 08:42:29;;;;;;;6.45;4.03;;;;;;;;;;5012840;28;20394;-68
2022/04/16 08:44:55;;;;;;;5.97;4.10;;;;;;;;;;5014212;28;20075;-67
2022/04/16 08:47:21;;;;;;;4.28;3.80;;;;;;;;;;5014675;28;20045;-68
2022/04/16 08:49:47;;;;;;;6.18;4.15;;;;;;;;;;5014268;28;20050;-69
2022/04/16 08:52:13;;;;;;;4.72;4.28;;;;;;;;;;5014126;28;20449;-69
2022/04/16 08:54:39;;;;;;;5.20;4.53;;;;;;;;;;5013070;28;20061;-69
2022/04/16 08:57:05;;;;;;;7.05;4.80;;;;;;;;;;5013603;28;20132;-69
2022/04/16 08:59:31;;;;;;;7.05;4.18;;;;;;;;;;5029166;28;20465;-69
2022/04/16 09:02:01;;;;;;;6.55;5.00;;;;;;;;;;5009657;28;20104;-69
2022/04/16 09:04:31;;;;;;;5.32;4.40;;;;;;;;;;5010902;28;20469;-69
2022/04/16 09:07:01;;;;;;;8.07;4.43;;;;;;;;;;5014210;28;20057;-69
2022/04/16 09:09:28;;;;;;;5.60;4.63;;;;;;;;;;5013373;28;20129;-69
2022/04/16 09:11:55;;;;;;;5.88;4.60;;;;;;;;;;5013969;28;20512;-69
2022/04/16 09:14:32;;;;;;;8.90;4.55;;;;;;;;;;5013792;28;20100;-69
2022/04/16 09:16:58;;;;;;;7.95;5.80;;;;;;;;;;5013852;28;20045;-69
2022/04/16 09:19:28;;;;;;;7.93;5.32;;;;;;;;;;5004478;28;20128;-69
2022/04/16 09:21:54;;;;;;;7.43;4.90;;;;;;;;;;4994297;28;20129;-69
2022/04/16 09:24:20;;;;;;;6.13;4.85;;;;;;;;;;4996218;28;20130;-69
2022/04/16 09:26:49;;;;;;;5.63;4.45;;;;;;;;;;5013678;28;20041;-69
2022/04/16 09:29:16;;;;;;;6.38;4.65;;;;;;;;;;5013696;28;20134;-69
2022/04/16 09:31:43;;;;;;;6.53;4.50;;;;;;;;;;5013868;28;20046;-69
2022/04/16 09:34:19;;;;;;;7.57;4.90;;;;;;;;;;5003439;28;20518;-70
2022/04/16 09:36:46;;;;;;;6.40;4.28;;;;;;;;;;5014264;28;20084;-69
2022/04/16 09:39:12;;;;;;;5.53;4.28;;;;;;;;;;5013628;28;20108;-69
2022/04/16 09:41:39;;;;;;;8.18;5.40;;;;;;;;;;5013859;28;20046;-70
2022/04/16 09:44:17;;;;;;;4.97;4.03;;;;;;;;;;5013584;28;20509;-69
2022/04/16 09:46:44;;;;;;;6.40;4.32;;;;;;;;;;5013368;28;20042;-70
2022/04/16 09:49:11;;;;;;;6.00;4.22;;;;;;;;;;5012840;28;20480;-69
2022/04/16 09:51:37;;;;;;;5.47;4.15;;;;;;;;;;5013103;28;20038;-70
2022/04/16 09:54:04;;;;;;;6.80;4.18;;;;;;;;;;5011329;28;20065;-69
2022/04/16 09:56:32;;;;;;;5.97;4.10;;;;;;;;;;5013632;28;20056;-69
2022/04/16 09:58:59;;;;;;;6.50;3.97;;;;;;;;;;5013177;28;20081;-68
2022/04/16 10:01:25;;;;;;;8.10;4.05;;;;;;;;;;5013604;28;20049;-69
2022/04/16 10:03:52;;;;;;;5.95;3.80;;;;;;;;;;5013194;28;20041;-69
2022/04/16 10:06:20;;;;;;;4.50;4.00;;;;;;;;;;5013222;28;20496;-68
2022/04/16 10:08:47;;;;;;;7.45;3.72;;;;;;;;;;5012854;28;20042;-68
2022/04/16 10:11:20;;;;;;;6.32;3.92;;;;;;;;;;5013135;28;20441;-68
2022/04/16 10:13:52;;;;;;;5.55;3.42;;;;;;;;;;5013174;28;20429;-69
2022/04/16 10:16:22;;;;;;;8.38;3.42;;;;;;;;;;5013909;28;20104;-67
2022/04/16 10:18:49;;;;;;;6.13;3.00;;;;;;;;;;5001756;28;20084;-67
2022/04/16 10:21:16;;;;;;;5.35;3.03;;;;;;;;;;4995040;28;20418;-67
2022/04/16 10:23:42;;;;;;;7.18;3.00;;;;;;;;;;5016932;28;20038;-68
2022/04/16 10:26:10;;;;;;;7.20;3.10;;;;;;;;;;4999902;28;20049;-67
2022/04/16 10:28:38;;;;;;;3.92;2.58;;;;;;;;;;5016920;28;20493;-67
2022/04/16 10:31:05;;;;;;;6.35;2.80;;;;;;;;;;5017052;28;20108;-68
2022/04/16 10:33:31;;;;;;;4.85;2.60;;;;;;;;;;5017473;28;20057;-68
2022/04/16 10:36:09;;;;;;;4.30;2.95;;;;;;;;;;5015724;28;20420;-68
2022/04/16 10:38:43;;;;;;;4.15;2.90;;;;;;;;;;5017542;28;20416;-68
2022/04/16 10:41:13;;;;;;;7.45;2.95;;;;;;;;;;5016846;28;20480;-68
2022/04/16 10:43:39;;;;;;;3.13;2.40;;;;;;;;;;5016179;28;20042;-68
2022/04/16 10:46:06;;;;;;;3.78;2.45;;;;;;;;;;5016566;28;20444;-67
2022/04/16 10:48:33;;;;;;;5.07;2.47;;;;;;;;;;5016210;28;20045;-67
2022/04/16 10:51:00;;;;;;;4.15;2.65;;;;;;;;;;5016575;28;20042;-67
2022/04/16 10:53:27;;;;;;;4.85;2.60;;;;;;;;;;5016479;28;20057;-67
2022/04/16 10:55:53;;;;;;;3.55;2.55;;;;;;;;;;5017490;28;20041;-67
2022/04/16 10:58:27;;;;;;;5.03;2.50;;;;;;;;;;5016531;28;20058;-67
2022/04/16 11:01:04;;;;;;;3.88;2.13;;;;;;;;;;5016867;28;20038;-67
2022/04/16 11:03:30;;;;;;;4.22;2.30;;;;;;;;;;5016641;28;20049;-67
2022/04/16 11:06:05;;;;;;;4.07;2.28;;;;;;;;;;5016615;28;20045;-67
2022/04/16 11:08:35;;;;;;;4.50;2.47;;;;;;;;;;5016252;28;20053;-67
2022/04/16 11:11:04;;;;;;;4.53;2.28;;;;;;;;;;4996544;28;20482;-69
2022/04/16 11:13:31;;;;;;;3.47;2.40;;;;;;;;;;4996901;28;20054;-67
2022/04/16 11:15:58;;;;;;;3.20;2.28;;;;;;;;;;4996793;28;20046;-67
2022/04/16 11:18:25;;;;;;;3.90;2.22;;;;;;;;;;5003794;28;20037;-67
2022/04/16 11:20:55;;;;;;;3.17;2.10;;;;;;;;;;5016201;28;20046;-68
2022/04/16 11:23:25;;;;;;;3.25;2.30;;;;;;;;;;5015491;28;20045;-67
2022/04/16 11:34:17;;;;;;;3.90;2.08;;;;;;;;;;5003423;28;20073;-67
2022/04/16 11:36:43;;;;;;;3.60;2.10;;;;;;;;;;5015711;28;20102;-67
2022/04/16 11:39:18;;;;;;;2.65;2.00;;;;;;;;;;5015832;28;20405;-67
2022/04/16 11:41:52;;;;;;;5.40;2.30;;;;;;;;;;5016114;28;20100;-67
2022/04/16 11:44:28;;;;;;;3.13;2.10;;;;;;;;;;5015350;28;20492;-67
2022/04/16 11:46:54;;;;;;;3.38;2.00;;;;;;;;;;5015843;28;20072;-67
2022/04/16 11:49:20;;;;;;;4.10;2.30;;;;;;;;;;5001968;28;20389;-67
2022/04/16 11:51:46;;;;;;;2.35;1.80;;;;;;;;;;5006343;28;20034;-67
2022/04/16 11:54:12;;;;;;;2.50;1.95;;;;;;;;;;5015878;28;20045;-67
2022/04/16 11:56:38;;;;;;;2.42;1.90;;;;;;;;;;5015303;28;20481;-67
2022/04/16 11:59:04;;;;;;;2.83;1.92;;;;;;;;;;5015777;28;20050;-67
2022/04/16 12:01:30;;;;;;;2.88;1.90;;;;;;;;;;5014644;28;20053;-67
2022/04/16 12:04:07;;;;;;;3.40;1.80;;;;;;;;;;5015473;28;20397;-67
2022/04/16 12:06:36;;;;;;;2.88;1.90;;;;;;;;;;5015093;28;20060;-67
2022/04/16 12:09:02;;;;;;;2.78;2.00;;;;;;;;;;5015259;28;20050;-67
2022/04/16 12:11:28;;;;;;;3.78;1.90;;;;;;;;;;5015473;28;20042;-67
2022/04/16 12:13:54;;;;;;;2.20;1.80;;;;;;;;;;5011929;28;20189;-67
2022/04/16 12:16:20;;;;;;;2.00;1.80;;;;;;;;;;5014780;28;20038;-67
2022/04/16 12:18:47;;;;;;;2.50;1.67;;;;;;;;;;5033668;28;20151;-67
2022/04/16 12:21:14;;;;;;;3.13;1.92;;;;;;;;;;5034768;28;20519;-67
2022/04/16 12:23:41;;;;;;;2.88;1.80;;;;;;;;;;5034622;28;20038;-68
2022/04/16 12:26:08;;;;;;;2.90;1.80;;;;;;;;;;5034848;28;20069;-67
2022/04/16 12:28:38;;;;;;;2.38;1.85;;;;;;;;;;5032110;28;20048;-67
2022/04/16 12:31:04;;;;;;;3.05;2.00;;;;;;;;;;5014955;28;20038;-67
2022/04/16 12:33:31;;;;;;;2.83;1.80;;;;;;;;;;5014380;28;20046;-67
2022/04/16 12:35:59;;;;;;;2.65;1.70;;;;;;;;;;5014235;28;20041;-67
2022/04/16 12:38:26;;;;;;;3.22;1.80;;;;;;;;;;5014178;28;20121;-67
2022/04/16 12:40:53;;;;;;;2.13;1.70;;;;;;;;;;5014756;28;20050;-67
2022/04/16 12:43:19;;;;;;;1.80;1.50;;;;;;;;;;5014635;28;20432;-67
2022/04/16 12:45:45;;;;;;;2.20;1.50;;;;;;;;;;5014467;28;20038;-67
2022/04/16 12:48:11;;;;;;;2.88;1.70;;;;;;;;;;5014194;28;20096;-67
2022/04/16 12:50:37;;;;;;;3.70;1.70;;;;;;;;;;5014202;28;20046;-67
2022/04/16 12:53:06;;;;;;;3.22;1.90;;;;;;;;;;5014324;28;20050;-67
2022/04/16 12:55:33;;;;;;;2.30;1.63;;;;;;;;;;5014554;28;20041;-67
2022/04/16 12:57:59;;;;;;;2.90;1.70;;;;;;;;;;5014660;28;20512;-68
2022/04/16 13:00:25;;;;;;;2.30;1.60;;;;;;;;;;5013782;28;20099;-67
2022/04/16 13:02:51;;;;;;;3.38;1.75;;;;;;;;;;5014001;28;20038;-67
2022/04/16 13:05:18;;;;;;;3.70;1.77;;;;;;;;;;5013603;28;20497;-67
2022/04/16 13:07:44;;;;;;;2.00;1.70;;;;;;;;;;5014238;28;20041;-67
2022/04/16 13:10:11;;;;;;;5.18;2.08;;;;;;;;;;5013603;28;20084;-68
2022/04/16 13:12:38;;;;;;;4.82;2.03;;;;;;;;;;5012548;28;20069;-67
2022/04/16 13:15:05;;;;;;;3.88;1.90;;;;;;;;;;5025461;28;20083;-67
2022/04/16 13:17:31;;;;;;;4.07;1.83;;;;;;;;;;5014931;28;20037;-67
2022/04/16 13:19:59;;;;;;;5.05;2.10;;;;;;;;;;5013945;28;20164;-67
2022/04/16 13:22:25;;;;;;;3.85;1.80;;;;;;;;;;5005489;28;20046;-65
2022/04/16 13:24:51;;;;;;;11.88;2.28;;;;;;;;;;5014446;28;20073;-66
2022/04/16 13:27:17;;;;;;;4.80;1.80;;;;;;;;;;5014280;28;20444;-67
2022/04/16 13:29:43;;;;;;;4.05;1.65;;;;;;;;;;5013606;28;20053;-67
2022/04/16 13:32:09;;;;;;;5.82;2.05;;;;;;;;;;5013750;28;20100;-67
2022/04/16 13:34:36;;;;;;;5.10;1.90;;;;;;;;;;5013290;28;20103;-67
2022/04/16 13:37:03;;;;;;;3.38;1.67;;;;;;;;;;5013978;28;20098;-67
2022/04/16 13:42:15;;;;;;;4.43;2.03;;;;;;;;;;5013778;28;20053;-67
2022/04/16 13:44:41;;;;;;;4.07;1.80;;;;;;;;;;5013069;28;20050;-67
2022/04/16 13:47:07;;;;;;;6.20;1.95;;;;;;;;;;5012451;28;20397;-68
2022/04/16 13:49:34;;;;;;;3.45;1.77;;;;;;;;;;5013712;28;20045;-67
2022/04/16 13:52:00;;;;;;;4.25;1.83;;;;;;;;;;5013621;28;20046;-67
2022/04/16 13:54:26;;;;;;;6.85;2.17;;;;;;;;;;5013469;28;20054;-67
2022/04/16 13:56:53;;;;;;;7.50;2.00;;;;;;;;;;5012492;28;20405;-67
2022/04/16 13:59:19;;;;;;;4.57;1.85;;;;;;;;;;5013518;28;20481;-68
2022/04/16 14:01:49;;;;;;;8.30;1.80;;;;;;;;;;5013206;28;20042;-67
2022/04/16 14:04:16;;;;;;;6.85;1.90;;;;;;;;;;5013425;28;20049;-67
2022/04/16 14:06:42;;;;;;;10.75;2.42;;;;;;;;;;5012356;28;20044;-67
2022/04/16 14:09:08;;;;;;;3.70;1.77;;;;;;;;;;5012784;28;20057;-67
2022/04/16 14:11:34;;;;;;;6.47;2.20;;;;;;;;;;5013071;28;20034;-68
2022/04/16 14:14:01;;;;;;;4.07;1.50;;;;;;;;;;5013358;28;20042;-68
2022/04/16 14:16:27;;;;;;;3.10;1.70;;;;;;;;;;5012407;28;20121;-68
2022/04/16 14:18:53;;;;;;;5.40;1.92;;;;;;;;;;5013123;28;20132;-67
2022/04/16 14:21:19;;;;;;;4.60;1.80;;;;;;;;;;5013306;28;20528;-67
2022/04/16 14:23:45;;;;;;;6.05;1.95;;;;;;;;;;5012926;28;20073;-67
2022/04/16 14:26:13;;;;;;;2.90;1.70;;;;;;;;;;5013413;28;20113;-68
2022/04/16 14:28:39;;;;;;;2.80;1.50;;;;;;;;;;5011692;28;20046;-68
2022/04/16 14:31:06;;;;;;;3.28;1.42;;;;;;;;;;5016648;28;20049;-67
2022/04/16 14:33:34;;;;;;;4.05;1.70;;;;;;;;;;5010764;28;20077;-68
2022/04/16 14:36:04;;;;;;;6.25;1.85;;;;;;;;;;5010454;28;20129;-66
2022/04/16 14:38:32;;;;;;;3.58;1.40;;;;;;;;;;5011572;28;20034;-67
2022/04/16 14:41:09;;;;;;;2.63;1.50;;;;;;;;;;5009550;28;20050;-66
2022/04/16 14:43:43;;;;;;;3.72;1.65;;;;;;;;;;5012203;28;20050;-67
2022/04/16 14:46:09;;;;;;;3.33;1.60;;;;;;;;;;5006217;28;20046;-67
2022/04/16 14:48:35;;;;;;;6.15;1.60;;;;;;;;;;5009567;28;20100;-67
2022/04/16 14:51:02;;;;;;;3.20;1.55;;;;;;;;;;5011661;28;20089;-66
2022/04/16 14:53:29;;;;;;;3.63;1.52;;;;;;;;;;5012465;28;20046;-66
2022/04/16 14:55:55;;;;;;;2.60;1.42;;;;;;;;;;5012076;28;20045;-66
2022/04/16 14:58:21;;;;;;;4.75;1.65;;;;;;;;;;5012159;28;20069;-65
2022/04/16 15:00:47;;;;;;;1.40;1.30;;;;;;;;;;5011684;28;20049;-65
2022/04/16 15:03:13;;;;;;;3.40;1.48;;;;;;;;;;5013158;28;20121;-65
2022/04/16 15:05:39;;;;;;;2.60;1.60;;;;;;;;;;5013387;28;20460;-66
2022/04/16 15:08:06;;;;;;;3.78;1.50;;;;;;;;;;5013495;28;20052;-65
2022/04/16 15:10:32;;;;;;;3.00;1.38;;;;;;;;;;5016508;28;20042;-66